createdAt,value
2019-02-17T00:00:13.066Z,7.74
2019-02-17T00:02:46.768Z,7.53
2019-02-17T00:05:50.344Z,7.44
2019-02-17T00:06:50.233Z,7.31
2019-02-17T00:07:50.896Z,7.27
2019-02-17T00:08:50.213Z,7.22
2019-02-17T00:11:40.545Z,7.40
2019-02-17T00:12:40.390Z,7.34
2019-02-17T00:13:40.310Z,7.34
2019-02-17T00:14:40.325Z,7.40
2019-02-17T00:15:40.218Z,7.47
2019-02-17T00:16:40.342Z,7.58
2019-02-17T00:17:40.859Z,7.60
2019-02-17T00:18:40.092Z,7.67
2019-02-17T00:19:40.082Z,7.67
2019-02-17T00:20:40.072Z,7.59
2019-02-17T00:21:40.962Z,7.56
2019-02-17T00:22:41.674Z,7.62
2019-02-17T00:23:40.070Z,7.56
2019-02-17T00:24:40.456Z,7.45
2019-02-17T00:25:40.459Z,7.42
2019-02-17T00:28:07.853Z,7.17
2019-02-17T00:29:07.841Z,7.15
2019-02-17T00:30:07.846Z,7.16
2019-02-17T00:31:07.754Z,7.16
2019-02-17T00:32:07.698Z,7.15
2019-02-17T00:33:07.616Z,7.26
2019-02-17T00:34:07.739Z,7.34
2019-02-17T00:35:07.804Z,7.40
2019-02-17T00:36:07.535Z,7.35
2019-02-17T00:37:07.519Z,7.31
2019-02-17T00:38:07.904Z,7.34
2019-02-17T00:39:07.459Z,7.31
2019-02-17T00:40:07.437Z,7.44
2019-02-17T00:41:07.422Z,7.45
2019-02-17T00:42:08.395Z,7.47
2019-02-17T00:43:07.410Z,7.41
2019-02-17T00:44:07.388Z,7.32
2019-02-17T00:45:07.373Z,7.31
2019-02-17T00:46:07.392Z,7.26
2019-02-17T00:47:07.466Z,7.29
2019-02-17T00:52:23.346Z,7.16
2019-02-17T00:53:23.379Z,7.08
2019-02-17T00:54:23.302Z,7.13
2019-02-17T00:55:23.254Z,7.04
2019-02-17T00:56:23.302Z,6.83
2019-02-17T00:57:23.311Z,6.84
2019-02-17T00:58:23.124Z,6.69
2019-02-17T00:59:23.101Z,6.77
2019-02-17T01:00:23.223Z,6.73
2019-02-17T01:01:23.238Z,6.81
2019-02-17T01:02:22.965Z,6.84
2019-02-17T01:04:54.212Z,6.89
2019-02-17T01:07:46.847Z,7.05
2019-02-17T01:08:43.722Z,7.07
2019-02-17T01:09:43.545Z,7.15
2019-02-17T01:10:43.496Z,7.22
2019-02-17T01:11:43.590Z,7.27
2019-02-17T01:12:43.630Z,7.13
2019-02-17T01:13:43.392Z,7.15
2019-02-17T01:14:43.384Z,7.02
2019-02-17T01:15:43.344Z,6.95
2019-02-17T01:16:43.350Z,6.63
2019-02-17T01:17:43.310Z,6.48
2019-02-17T01:18:43.267Z,6.48
2019-02-17T01:19:43.317Z,6.50
2019-02-17T01:20:43.332Z,6.66
2019-02-17T01:21:44.277Z,6.62
2019-02-17T01:22:43.206Z,6.65
2019-02-17T01:23:43.190Z,6.73
2019-02-17T01:24:43.216Z,6.81
2019-02-17T01:25:43.988Z,6.81
2019-02-17T01:26:43.169Z,6.89
2019-02-17T01:27:43.141Z,6.94
2019-02-17T01:28:43.148Z,6.87
2019-02-17T01:29:43.155Z,6.84
2019-02-17T01:30:43.146Z,6.86
2019-02-17T01:31:43.095Z,6.87
2019-02-17T01:32:43.088Z,6.87
2019-02-17T01:33:43.075Z,6.81
2019-02-17T01:34:43.081Z,6.73
2019-02-17T01:35:43.056Z,6.83
2019-02-17T01:36:43.046Z,6.80
2019-02-17T01:37:43.033Z,6.84
2019-02-17T01:38:43.023Z,6.86
2019-02-17T01:39:43.025Z,6.81
2019-02-17T01:40:43.005Z,6.87
2019-02-17T01:41:42.991Z,6.81
2019-02-17T01:44:01.639Z,6.83
2019-02-17T01:45:01.771Z,6.79
2019-02-17T01:46:01.730Z,6.69
2019-02-17T01:47:01.297Z,6.65
2019-02-17T01:48:01.542Z,6.62
2019-02-17T01:49:01.715Z,6.63
2019-02-17T01:50:01.246Z,6.84
2019-02-17T01:51:01.258Z,6.77
2019-02-17T01:52:01.185Z,6.84
2019-02-17T01:53:01.183Z,6.91
2019-02-17T01:54:01.163Z,6.86
2019-02-17T01:55:01.208Z,6.86
2019-02-17T01:56:01.152Z,6.76
2019-02-17T01:57:21.629Z,6.72
2019-02-17T01:58:01.407Z,6.76
2019-02-17T01:59:01.282Z,6.86
2019-02-17T02:00:01.206Z,6.83
2019-02-17T02:01:01.455Z,6.83
2019-02-17T02:02:01.789Z,6.89
2019-02-17T02:03:01.693Z,6.91
2019-02-17T02:04:01.717Z,6.89
2019-02-17T02:05:01.389Z,6.76
2019-02-17T02:06:01.074Z,6.83
2019-02-17T02:07:01.364Z,6.89
2019-02-17T02:08:01.041Z,6.84
2019-02-17T02:09:08.294Z,6.80
2019-02-17T02:10:01.353Z,6.95
2019-02-17T02:11:01.219Z,7.02
2019-02-17T02:13:45.407Z,7.02
2019-02-17T02:14:44.760Z,7.04
2019-02-17T02:15:44.666Z,7.16
2019-02-17T02:16:44.610Z,7.01
2019-02-17T02:17:44.815Z,7.01
2019-02-17T02:18:44.789Z,7.01
2019-02-17T02:19:44.540Z,6.98
2019-02-17T02:20:44.553Z,7.07
2019-02-17T02:21:44.512Z,6.99
2019-02-17T02:22:44.498Z,7.04
2019-02-17T02:23:44.525Z,7.01
2019-02-17T02:24:44.476Z,6.95
2019-02-17T02:27:44.907Z,6.91
2019-02-17T02:28:44.146Z,6.95
2019-02-17T02:29:44.145Z,6.83
2019-02-17T02:30:44.180Z,6.97
2019-02-17T02:31:44.106Z,6.86
2019-02-17T02:32:43.956Z,6.90
2019-02-17T02:33:44.129Z,6.87
2019-02-17T02:34:44.046Z,6.84
2019-02-17T02:35:43.845Z,6.66
2019-02-17T02:36:43.861Z,6.72
2019-02-17T02:37:43.820Z,6.56
2019-02-17T02:38:43.837Z,6.71
2019-02-17T02:39:43.808Z,6.65
2019-02-17T02:40:44.992Z,6.66
2019-02-17T02:41:43.765Z,6.68
2019-02-17T02:42:44.912Z,6.65
2019-02-17T02:43:43.795Z,6.68
2019-02-17T02:44:43.769Z,6.62
2019-02-17T02:45:43.849Z,6.68
2019-02-17T02:46:43.767Z,6.65
2019-02-17T02:47:45.488Z,6.61
2019-02-17T02:48:43.781Z,6.50
2019-02-17T02:49:45.524Z,6.61
2019-02-17T02:50:43.712Z,6.62
2019-02-17T02:51:43.723Z,6.66
2019-02-17T02:54:22.579Z,6.84
2019-02-17T02:55:22.643Z,6.72
2019-02-17T02:56:22.469Z,6.69
2019-02-17T02:57:22.375Z,6.69
2019-02-17T02:58:22.533Z,6.62
2019-02-17T02:59:22.599Z,6.48
2019-02-17T03:00:22.347Z,6.33
2019-02-17T03:01:22.283Z,6.19
2019-02-17T03:02:22.280Z,6.22
2019-02-17T03:03:22.253Z,6.18
2019-02-17T03:04:22.245Z,6.29
2019-02-17T03:05:22.227Z,6.40
2019-02-17T03:06:22.230Z,6.41
2019-02-17T03:07:22.225Z,6.40
2019-02-17T03:08:22.199Z,6.43
2019-02-17T03:09:22.184Z,6.47
2019-02-17T03:10:31.082Z,6.26
2019-02-17T03:11:22.476Z,6.14
2019-02-17T03:12:22.438Z,5.96
2019-02-17T03:13:22.301Z,6.06
2019-02-17T03:14:22.172Z,6.01
2019-02-17T03:15:31.646Z,5.86
2019-02-17T03:16:22.405Z,5.93
2019-02-17T03:17:22.433Z,5.93
2019-02-17T03:18:22.391Z,5.70
2019-02-17T03:19:22.374Z,5.67
2019-02-17T03:20:22.298Z,5.71
2019-02-17T03:21:22.174Z,5.59
2019-02-17T03:22:22.077Z,5.56
2019-02-17T03:23:22.343Z,5.64
2019-02-17T03:24:35.001Z,5.73
2019-02-17T03:25:22.323Z,5.73
2019-02-17T03:26:22.277Z,5.68
2019-02-17T03:27:22.286Z,5.78
2019-02-17T03:28:22.120Z,5.74
2019-02-17T03:29:22.011Z,5.85
2019-02-17T03:30:22.280Z,5.81
2019-02-17T03:31:22.275Z,5.75
2019-02-17T03:32:21.984Z,5.71
2019-02-17T03:33:30.011Z,5.56
2019-02-17T03:34:22.188Z,5.41
2019-02-17T03:35:22.060Z,5.34
2019-02-17T03:36:22.154Z,5.34
2019-02-17T03:37:22.033Z,5.50
2019-02-17T03:38:21.911Z,5.57
2019-02-17T03:39:22.112Z,5.60
2019-02-17T03:40:21.842Z,5.60
2019-02-17T03:41:21.833Z,5.67
2019-02-17T03:42:21.807Z,5.73
2019-02-17T03:43:21.796Z,5.74
2019-02-17T03:44:21.801Z,5.70
2019-02-17T03:45:21.780Z,5.73
2019-02-17T03:46:21.781Z,5.78
2019-02-17T03:47:21.761Z,5.77
2019-02-17T03:48:21.744Z,5.68
2019-02-17T03:49:21.731Z,5.75
2019-02-17T03:50:21.716Z,5.74
2019-02-17T03:51:22.038Z,5.64
2019-02-17T03:52:21.723Z,5.59
2019-02-17T03:53:21.689Z,5.64
2019-02-17T03:54:21.670Z,5.68
2019-02-17T03:55:21.668Z,5.71
2019-02-17T03:56:21.667Z,5.64
2019-02-17T03:57:34.063Z,5.75
2019-02-17T03:58:21.970Z,5.82
2019-02-17T03:59:21.852Z,5.82
2019-02-17T04:00:21.718Z,5.77
2019-02-17T04:01:21.650Z,5.77
2019-02-17T04:02:21.813Z,5.71
2019-02-17T04:03:21.578Z,5.57
2019-02-17T04:04:28.781Z,5.41
2019-02-17T04:05:34.340Z,5.40
2019-02-17T04:06:21.822Z,5.49
2019-02-17T04:07:21.684Z,5.50
2019-02-17T04:08:33.545Z,5.67
2019-02-17T04:09:21.885Z,5.64
2019-02-17T04:10:21.830Z,5.74
2019-02-17T04:11:21.664Z,5.68
2019-02-17T04:12:30.359Z,5.78
2019-02-17T04:13:21.716Z,5.73
2019-02-17T04:14:21.680Z,5.77
2019-02-17T04:15:28.744Z,5.74
2019-02-17T04:16:21.694Z,5.73
2019-02-17T04:17:28.751Z,5.64
2019-02-17T04:18:21.615Z,5.63
2019-02-17T04:19:21.684Z,5.55
2019-02-17T04:20:21.661Z,5.63
2019-02-17T04:21:21.638Z,5.68
2019-02-17T04:22:21.398Z,5.56
2019-02-17T04:23:31.038Z,5.59
2019-02-17T04:24:22.341Z,5.68
2019-02-17T04:25:31.683Z,5.78
2019-02-17T04:26:21.571Z,5.75
2019-02-17T04:27:21.459Z,5.75
2019-02-17T04:28:21.337Z,5.81
2019-02-17T04:29:21.601Z,5.89
2019-02-17T04:30:29.300Z,5.73
2019-02-17T04:31:22.281Z,5.78
2019-02-17T04:32:21.278Z,5.85
2019-02-17T04:33:48.879Z,5.71
2019-02-17T04:34:21.276Z,5.77
2019-02-17T04:35:28.399Z,5.56
2019-02-17T04:36:21.281Z,5.75
2019-02-17T04:37:21.329Z,5.82
2019-02-17T04:38:21.236Z,5.73
2019-02-17T04:39:21.467Z,5.75
2019-02-17T04:40:21.195Z,5.82
2019-02-17T04:41:21.148Z,5.86
2019-02-17T04:42:37.230Z,5.68
2019-02-17T04:43:21.368Z,5.64
2019-02-17T04:44:21.311Z,5.53
2019-02-17T04:45:28.391Z,5.38
2019-02-17T04:46:21.359Z,5.40
2019-02-17T04:47:21.440Z,5.40
2019-02-17T04:48:21.387Z,5.40
2019-02-17T04:49:34.413Z,5.38
2019-02-17T04:50:21.189Z,5.25
2019-02-17T04:51:28.342Z,5.27
2019-02-17T04:52:21.314Z,5.28
2019-02-17T04:53:21.255Z,5.30
2019-02-17T04:54:21.280Z,5.30
2019-02-17T04:55:21.139Z,5.13
2019-02-17T04:56:21.024Z,5.17
2019-02-17T04:57:21.225Z,5.27
2019-02-17T04:58:20.970Z,5.35
2019-02-17T04:59:20.956Z,5.40
2019-02-17T05:00:20.935Z,5.38
2019-02-17T05:01:20.922Z,5.38
2019-02-17T05:02:20.922Z,5.43
2019-02-17T05:03:20.905Z,5.35
2019-02-17T05:04:20.883Z,5.40
2019-02-17T05:05:20.885Z,5.28
2019-02-17T05:06:20.900Z,5.35
2019-02-17T05:07:20.859Z,5.41
2019-02-17T05:08:20.837Z,5.34
2019-02-17T05:09:20.825Z,5.22
2019-02-17T05:10:20.818Z,5.35
2019-02-17T05:11:20.821Z,5.27
2019-02-17T05:12:20.819Z,5.25
2019-02-17T05:13:20.778Z,5.17
2019-02-17T05:14:20.774Z,5.23
2019-02-17T05:15:20.757Z,5.14
2019-02-17T05:16:20.775Z,5.12
2019-02-17T05:17:20.757Z,5.04
2019-02-17T05:18:20.737Z,4.92
2019-02-17T05:19:20.714Z,4.92
2019-02-17T05:20:20.707Z,5.01
2019-02-17T05:21:20.697Z,4.83
2019-02-17T05:22:20.697Z,4.98
2019-02-17T05:23:20.674Z,4.98
2019-02-17T05:24:20.657Z,5.02
2019-02-17T05:25:20.648Z,5.13
2019-02-17T05:26:20.635Z,5.13
2019-02-17T05:27:20.660Z,5.10
2019-02-17T05:28:20.641Z,5.17
2019-02-17T05:29:20.602Z,5.17
2019-02-17T05:30:20.589Z,5.10
2019-02-17T05:31:20.582Z,5.10
2019-02-17T05:32:20.568Z,5.12
2019-02-17T05:33:20.609Z,5.13
2019-02-17T05:34:20.565Z,5.12
2019-02-17T05:35:20.536Z,5.09
2019-02-17T05:36:20.529Z,4.94
2019-02-17T05:37:27.894Z,4.77
2019-02-17T05:38:20.750Z,4.59
2019-02-17T05:39:20.734Z,4.54
2019-02-17T05:40:20.630Z,4.50
2019-02-17T05:41:20.514Z,4.59
2019-02-17T05:42:20.802Z,4.61
2019-02-17T05:43:20.468Z,4.70
2019-02-17T05:44:20.433Z,4.88
2019-02-17T05:45:20.425Z,5.01
2019-02-17T05:46:20.416Z,5.10
2019-02-17T05:47:20.403Z,5.07
2019-02-17T05:48:20.397Z,5.05
2019-02-17T05:49:20.376Z,5.12
2019-02-17T05:50:20.380Z,5.17
2019-02-17T05:51:20.375Z,5.22
2019-02-17T05:52:20.348Z,5.30
2019-02-17T05:53:20.347Z,5.25
2019-02-17T05:54:20.321Z,5.37
2019-02-17T05:55:20.315Z,5.37
2019-02-17T05:56:20.319Z,5.40
2019-02-17T05:57:20.289Z,5.34
2019-02-17T05:58:20.301Z,5.12
2019-02-17T05:59:20.265Z,5.07
2019-02-17T06:00:20.268Z,4.99
2019-02-17T06:01:28.100Z,4.89
2019-02-17T06:02:20.386Z,4.88
2019-02-17T06:03:20.343Z,4.88
2019-02-17T06:04:20.261Z,4.92
2019-02-17T06:05:20.518Z,4.86
2019-02-17T06:06:20.211Z,4.86
2019-02-17T06:07:20.191Z,4.76
2019-02-17T06:08:20.193Z,4.65
2019-02-17T06:09:20.178Z,4.55
2019-02-17T06:10:20.148Z,4.51
2019-02-17T06:11:20.133Z,4.50
2019-02-17T06:12:20.127Z,4.40
2019-02-17T06:13:20.129Z,4.39
2019-02-17T06:14:20.100Z,4.51
2019-02-17T06:15:20.105Z,4.51
2019-02-17T06:16:20.085Z,4.58
2019-02-17T06:17:20.067Z,4.65
2019-02-17T06:18:20.069Z,4.70
2019-02-17T06:19:20.056Z,4.76
2019-02-17T06:20:20.035Z,4.62
2019-02-17T06:21:20.027Z,4.65
2019-02-17T06:22:27.221Z,4.65
2019-02-17T06:23:20.312Z,4.65
2019-02-17T06:24:20.100Z,4.65
2019-02-17T06:25:20.239Z,4.57
2019-02-17T06:26:20.237Z,4.62
2019-02-17T06:27:20.276Z,4.69
2019-02-17T06:28:19.965Z,4.76
2019-02-17T06:29:19.937Z,4.80
2019-02-17T06:30:19.950Z,4.86
2019-02-17T06:31:19.912Z,4.77
2019-02-17T06:32:19.900Z,4.86
2019-02-17T06:33:19.902Z,4.80
2019-02-17T06:34:19.877Z,4.77
2019-02-17T06:35:19.878Z,4.75
2019-02-17T06:36:19.879Z,4.89
2019-02-17T06:37:19.862Z,4.95
2019-02-17T06:38:19.846Z,4.98
2019-02-17T06:39:19.823Z,4.89
2019-02-17T06:40:19.818Z,4.84
2019-02-17T06:41:19.813Z,4.91
2019-02-17T06:42:19.790Z,4.77
2019-02-17T06:43:19.789Z,4.79
2019-02-17T06:44:19.767Z,4.84
2019-02-17T06:45:19.880Z,4.94
2019-02-17T06:46:19.755Z,4.92
2019-02-17T06:47:19.756Z,4.99
2019-02-17T06:48:19.759Z,5.02
2019-02-17T06:49:19.749Z,5.13
2019-02-17T06:50:19.699Z,5.20
2019-02-17T06:51:19.692Z,5.23
2019-02-17T06:52:19.699Z,5.17
2019-02-17T06:53:19.669Z,5.19
2019-02-17T06:54:19.676Z,5.20
2019-02-17T06:55:26.861Z,5.22
2019-02-17T06:56:19.927Z,5.23
2019-02-17T06:57:19.694Z,5.04
2019-02-17T06:58:19.757Z,4.92
2019-02-17T06:59:19.931Z,4.95
2019-02-17T07:00:19.604Z,5.12
2019-02-17T07:01:24.701Z,5.23
2019-02-17T07:02:20.674Z,5.28
2019-02-17T07:03:19.560Z,5.34
2019-02-17T07:04:19.582Z,5.41
2019-02-17T07:05:19.533Z,5.45
2019-02-17T07:06:19.522Z,5.53
2019-02-17T07:07:19.511Z,5.53
2019-02-17T07:08:19.499Z,5.43
2019-02-17T07:09:20.113Z,5.49
2019-02-17T07:10:19.477Z,5.40
2019-02-17T07:11:20.101Z,5.46
2019-02-17T07:12:19.454Z,5.48
2019-02-17T07:13:19.449Z,5.52
2019-02-17T07:14:19.448Z,5.64
2019-02-17T07:15:19.467Z,5.67
2019-02-17T07:16:19.542Z,5.82
2019-02-17T07:17:19.400Z,5.75
2019-02-17T07:18:19.412Z,5.74
2019-02-17T07:19:19.396Z,5.73
2019-02-17T07:20:19.374Z,5.77
2019-02-17T07:21:19.381Z,5.88
2019-02-17T07:22:19.354Z,5.82
2019-02-17T07:23:19.337Z,5.83
2019-02-17T07:24:19.349Z,5.85
2019-02-17T07:25:29.364Z,5.85
2019-02-17T07:26:20.327Z,5.89
2019-02-17T07:27:19.400Z,6.03
2019-02-17T07:28:19.351Z,6.09
2019-02-17T07:29:19.282Z,6.13
2019-02-17T07:30:19.263Z,6.28
2019-02-17T07:31:19.245Z,6.22
2019-02-17T07:32:19.248Z,6.22
2019-02-17T07:33:19.254Z,6.19
2019-02-17T07:34:19.311Z,6.32
2019-02-17T07:35:19.210Z,6.38
2019-02-17T07:36:19.206Z,6.40
2019-02-17T07:37:21.113Z,6.41
2019-02-17T07:38:19.192Z,6.46
2019-02-17T07:39:19.184Z,6.50
2019-02-17T07:40:22.112Z,6.62
2019-02-17T07:41:19.722Z,6.56
2019-02-17T07:42:19.122Z,6.71
2019-02-17T07:43:19.123Z,6.87
2019-02-17T07:44:21.641Z,6.99
2019-02-17T07:45:19.608Z,7.20
2019-02-17T07:46:21.639Z,7.27
2019-02-17T07:47:19.713Z,7.35
2019-02-17T07:48:19.174Z,7.55
2019-02-17T07:49:19.073Z,7.66
2019-02-17T07:50:19.045Z,7.74
2019-02-17T07:51:19.028Z,7.84
2019-02-17T07:52:19.012Z,7.94
2019-02-17T07:53:19.001Z,8.00
2019-02-17T07:54:19.005Z,8.02
2019-02-17T07:55:19.015Z,8.11
2019-02-17T07:56:19.010Z,8.11
2019-02-17T07:57:18.987Z,8.25
2019-02-17T07:58:18.960Z,8.45
2019-02-17T07:59:18.987Z,8.75
2019-02-17T08:00:18.961Z,8.78
2019-02-17T08:01:18.985Z,8.91
2019-02-17T08:02:18.941Z,8.99
2019-02-17T08:03:18.906Z,8.99
2019-02-17T08:04:18.889Z,8.99
2019-02-17T08:05:18.979Z,8.93
2019-02-17T08:06:19.609Z,8.93
2019-02-17T08:07:18.873Z,8.93
2019-02-17T08:08:18.889Z,9.05
2019-02-17T08:09:19.614Z,9.32
2019-02-17T08:10:18.924Z,9.50
2019-02-17T08:11:18.894Z,9.68
2019-02-17T08:12:18.896Z,9.81
2019-02-17T08:13:18.964Z,10.04
2019-02-17T08:14:19.615Z,10.09
2019-02-17T08:15:18.832Z,10.24
2019-02-17T08:16:19.620Z,10.52
2019-02-17T08:17:19.670Z,10.68
2019-02-17T08:18:18.807Z,10.84
2019-02-17T08:19:18.766Z,11.07
2019-02-17T08:20:18.829Z,11.20
2019-02-17T08:21:18.806Z,11.39
2019-02-17T08:22:19.609Z,11.50
2019-02-17T08:23:26.934Z,11.50
2019-02-17T08:24:18.953Z,11.49
2019-02-17T08:25:21.721Z,11.54
2019-02-17T08:26:18.922Z,11.83
2019-02-17T08:27:25.911Z,12.02
2019-02-17T08:28:18.917Z,11.96
2019-02-17T08:29:18.947Z,12.19
2019-02-17T08:30:29.609Z,12.31
2019-02-17T08:31:28.204Z,12.56
2019-02-17T08:32:29.212Z,12.71
2019-02-17T08:33:45.507Z,12.92
2019-02-17T08:34:18.758Z,12.93
2019-02-17T08:36:48.230Z,13.40
2019-02-17T08:37:47.500Z,13.25
2019-02-17T08:38:47.482Z,13.27
2019-02-17T08:39:47.495Z,13.20
2019-02-17T08:40:47.474Z,13.36
2019-02-17T08:41:47.445Z,13.36
2019-02-17T08:42:47.433Z,13.49
2019-02-17T08:43:47.436Z,13.61
2019-02-17T08:44:47.442Z,13.73
2019-02-17T08:45:47.466Z,13.76
2019-02-17T08:46:47.360Z,13.77
2019-02-17T08:47:47.339Z,13.71
2019-02-17T08:48:47.477Z,13.76
2019-02-17T08:49:47.213Z,13.79
2019-02-17T08:50:48.942Z,13.74
2019-02-17T08:51:47.314Z,13.70
2019-02-17T08:52:47.119Z,13.51
2019-02-17T08:57:38.632Z,13.51
2019-02-17T09:00:49.093Z,13.76
2019-02-17T09:01:48.933Z,13.73
2019-02-17T09:04:48.660Z,13.73
2019-02-17T09:05:48.480Z,13.59
2019-02-17T09:08:59.038Z,14.38
